createdAt,value
2023-08-12T00:01:51.603Z,25.13
2023-08-12T00:04:19.210Z,25.16
2023-08-12T00:06:47.755Z,25.09
2023-08-12T00:09:16.464Z,25.06
2023-08-12T00:11:44.058Z,25.11
2023-08-12T00:14:12.264Z,25.03
2023-08-12T00:16:39.911Z,25.02
2023-08-12T00:19:09.879Z,25.17
2023-08-12T00:21:38.007Z,25.03
2023-08-12T00:24:06.105Z,24.99
2023-08-12T00:26:33.680Z,24.93
2023-08-12T00:29:01.421Z,25.05
2023-08-12T00:31:29.219Z,24.88
2023-08-12T00:33:57.431Z,25.02
2023-08-12T00:36:25.403Z,25.13
2023-08-12T00:38:53.063Z,25.02
2023-08-12T00:41:20.642Z,24.88
2023-08-12T00:43:48.290Z,24.92
2023-08-12T00:46:16.283Z,24.92
2023-08-12T00:48:43.982Z,24.84
2023-08-12T00:51:11.716Z,24.86
2023-08-12T00:53:40.756Z,24.94
2023-08-12T00:56:09.019Z,24.99
2023-08-12T00:58:36.721Z,25.07
2023-08-12T01:01:05.172Z,25.09
2023-08-12T01:03:33.053Z,24.93
2023-08-12T01:06:01.282Z,24.67
2023-08-12T01:08:32.112Z,24.62
2023-08-12T01:11:27.232Z,24.75
2023-08-12T01:14:18.970Z,24.82
2023-08-12T01:16:50.909Z,24.93
2023-08-12T01:19:37.849Z,24.78
2023-08-12T01:22:10.346Z,24.79
2023-08-12T01:24:41.140Z,24.85
2023-08-12T01:27:10.858Z,24.93
2023-08-12T01:29:42.448Z,24.94
2023-08-12T01:32:20.817Z,24.46
2023-08-12T01:35:07.862Z,24.42
2023-08-12T01:37:37.980Z,24.56
2023-08-12T01:40:07.607Z,24.71
2023-08-12T01:42:35.674Z,24.64
2023-08-12T01:45:04.096Z,24.66
2023-08-12T01:47:32.209Z,24.79
2023-08-12T01:50:00.111Z,24.74
2023-08-12T01:52:28.759Z,24.81
2023-08-12T01:54:56.620Z,24.71
2023-08-12T01:57:24.201Z,24.85
2023-08-12T01:59:53.274Z,24.46
2023-08-12T02:02:21.014Z,24.18
2023-08-12T02:04:48.659Z,24.10
2023-08-12T02:07:16.344Z,24.17
2023-08-12T02:09:44.322Z,24.03
2023-08-12T02:12:12.582Z,23.94
2023-08-12T02:14:40.242Z,24.00
2023-08-12T02:17:08.378Z,23.94
2023-08-12T02:19:37.431Z,23.81
2023-08-12T02:22:06.072Z,23.67
2023-08-12T02:24:34.179Z,23.79
2023-08-12T02:27:02.251Z,24.05
2023-08-12T02:29:29.855Z,24.16
2023-08-12T02:31:57.955Z,24.14
2023-08-12T02:34:25.615Z,23.96
2023-08-12T02:36:53.194Z,23.78
2023-08-12T02:39:20.878Z,23.79
2023-08-12T02:41:48.876Z,23.96
2023-08-12T02:44:16.982Z,23.77
2023-08-12T02:46:44.754Z,23.68
2023-08-12T02:49:12.896Z,23.63
2023-08-12T02:51:40.551Z,23.72
2023-08-12T02:54:08.593Z,23.95
2023-08-12T02:56:36.436Z,24.09
2023-08-12T02:59:04.625Z,24.14
2023-08-12T03:01:32.322Z,24.12
2023-08-12T03:04:00.597Z,23.80
2023-08-12T03:06:28.489Z,23.76
2023-08-12T03:08:56.879Z,23.77
2023-08-12T03:11:24.763Z,23.85
2023-08-12T03:13:53.152Z,23.67
2023-08-12T03:16:21.273Z,23.52
2023-08-12T03:18:49.005Z,23.45
2023-08-12T03:21:17.434Z,23.31
2023-08-12T03:23:45.825Z,23.29
2023-08-12T03:26:15.460Z,23.24
2023-08-12T03:28:43.451Z,23.29
2023-08-12T03:31:15.002Z,23.35
2023-08-12T03:33:43.691Z,23.47
2023-08-12T03:36:11.335Z,23.54
2023-08-12T03:38:39.104Z,23.36
2023-08-12T03:41:09.553Z,23.26
2023-08-12T03:43:38.904Z,23.34
2023-08-12T03:46:07.914Z,23.16
2023-08-12T03:48:35.613Z,23.37
2023-08-12T03:51:03.710Z,23.58
2023-08-12T03:53:31.486Z,23.63
2023-08-12T03:55:59.573Z,23.83
2023-08-12T03:58:28.490Z,23.81
2023-08-12T04:00:56.449Z,23.86
2023-08-12T04:03:24.443Z,23.78
2023-08-12T04:05:53.715Z,23.80
2023-08-12T04:08:24.449Z,23.91
2023-08-12T04:10:53.213Z,23.83
2023-08-12T04:13:20.839Z,23.81
2023-08-12T04:15:52.300Z,23.62
2023-08-12T04:18:20.958Z,23.57
2023-08-12T04:20:50.306Z,23.55
2023-08-12T04:23:19.140Z,23.63
2023-08-12T04:25:48.680Z,23.30
2023-08-12T04:28:17.773Z,23.36
2023-08-12T04:30:48.642Z,23.47
2023-08-12T04:33:18.275Z,23.40
2023-08-12T04:35:47.411Z,23.45
2023-08-12T04:38:17.196Z,23.71
2023-08-12T04:40:45.544Z,23.84
2023-08-12T04:43:14.741Z,24.02
2023-08-12T04:45:47.089Z,24.12
2023-08-12T04:48:15.936Z,24.00
2023-08-12T04:50:44.399Z,24.00
2023-08-12T04:53:12.499Z,24.15
2023-08-12T04:55:41.105Z,24.26
2023-08-12T04:58:09.718Z,24.22
2023-08-12T05:00:38.421Z,24.22
2023-08-12T05:03:06.109Z,24.29
2023-08-12T05:05:33.772Z,24.29
2023-08-12T05:08:01.953Z,24.27
2023-08-12T05:10:29.843Z,24.46
2023-08-12T05:12:59.467Z,24.67
2023-08-12T05:15:27.788Z,24.79
2023-08-12T05:17:56.539Z,24.34
2023-08-12T05:20:25.082Z,24.52
2023-08-12T05:22:53.212Z,24.64
2023-08-12T05:25:20.827Z,24.78
2023-08-12T05:27:48.435Z,24.72
2023-08-12T05:30:16.054Z,24.59
2023-08-12T05:32:44.502Z,24.48
2023-08-12T05:35:12.662Z,24.52
2023-08-12T05:37:40.814Z,24.85
2023-08-12T05:40:10.694Z,25.17
2023-08-12T05:42:38.319Z,25.34
2023-08-12T05:45:08.580Z,25.18
2023-08-12T05:47:36.658Z,25.30
2023-08-12T05:50:05.112Z,25.38
2023-08-12T05:52:32.823Z,25.61
2023-08-12T05:55:00.829Z,25.68
2023-08-12T05:57:29.821Z,26.03
2023-08-12T05:59:58.017Z,26.28
2023-08-12T06:02:26.870Z,26.37
2023-08-12T06:04:54.570Z,26.51
2023-08-12T06:07:22.434Z,26.57
2023-08-12T06:09:51.954Z,26.77
2023-08-12T06:12:19.605Z,26.78
2023-08-12T06:14:47.431Z,26.71
2023-08-12T06:17:14.955Z,26.81
2023-08-12T06:19:43.005Z,27.10
2023-08-12T06:22:11.175Z,26.65
2023-08-12T06:24:39.501Z,26.80
2023-08-12T06:27:07.196Z,27.06
2023-08-12T06:29:34.805Z,27.25
2023-08-12T06:32:02.379Z,27.49
2023-08-12T06:34:29.941Z,27.79
2023-08-12T06:36:57.644Z,27.35
2023-08-12T06:39:26.125Z,27.46
2023-08-12T06:41:54.170Z,27.63
2023-08-12T06:44:21.874Z,27.26
2023-08-12T06:46:49.467Z,27.28
2023-08-12T06:49:17.677Z,27.83
2023-08-12T06:51:45.215Z,27.94
2023-08-12T06:54:13.258Z,27.90
2023-08-12T06:56:40.868Z,28.04
2023-08-12T06:59:08.829Z,28.32
2023-08-12T07:01:36.456Z,28.53
2023-08-12T07:04:04.567Z,28.71
2023-08-12T07:06:32.221Z,28.75
2023-08-12T07:08:59.912Z,28.52
2023-08-12T07:11:27.495Z,28.74
2023-08-12T07:13:55.485Z,29.00
2023-08-12T07:16:23.059Z,28.89
2023-08-12T07:18:51.011Z,28.66
2023-08-12T07:21:18.995Z,27.98
2023-08-12T07:23:58.477Z,28.25
2023-08-12T07:26:31.617Z,27.87
2023-08-12T07:28:59.225Z,28.27
2023-08-12T07:31:27.351Z,28.43
2023-08-12T07:33:55.115Z,28.18
2023-08-12T07:36:23.554Z,28.25
2023-08-12T07:38:51.181Z,28.58
2023-08-12T07:41:19.274Z,28.16
2023-08-12T07:43:46.891Z,27.99
2023-08-12T07:46:14.888Z,28.67
2023-08-12T07:48:42.451Z,29.06
2023-08-12T07:51:10.463Z,29.20
2023-08-12T07:53:38.433Z,28.40
2023-08-12T07:56:06.128Z,28.54
2023-08-12T07:58:34.087Z,28.61
2023-08-12T08:01:01.623Z,28.88
2023-08-12T08:03:29.420Z,28.92
2023-08-12T08:05:57.466Z,29.26
2023-08-12T08:08:25.481Z,28.98
2023-08-12T08:10:53.097Z,29.40
2023-08-12T08:13:20.626Z,29.41
2023-08-12T08:15:48.465Z,29.47
2023-08-12T08:18:16.114Z,29.83
2023-08-12T08:20:45.903Z,29.85
2023-08-12T08:23:14.166Z,29.37
2023-08-12T08:25:42.397Z,29.04
2023-08-12T08:28:10.385Z,29.12
2023-08-12T08:30:38.185Z,28.90
2023-08-12T08:33:06.598Z,29.00
2023-08-12T08:35:34.255Z,29.64
2023-08-12T08:38:01.926Z,30.14
2023-08-12T08:40:29.567Z,29.55
2023-08-12T08:43:01.979Z,28.96
2023-08-12T08:45:33.103Z,29.33
2023-08-12T08:48:02.777Z,28.96
2023-08-12T08:50:32.458Z,29.42
2023-08-12T08:53:04.167Z,30.13
2023-08-12T08:55:32.235Z,30.30
2023-08-12T08:58:05.486Z,30.15
2023-08-12T09:00:33.739Z,29.45
2023-08-12T09:03:03.752Z,29.83
2023-08-12T09:05:33.262Z,30.54
2023-08-12T09:08:02.925Z,30.81
2023-08-12T09:10:31.664Z,30.95
2023-08-12T09:13:00.053Z,30.61
2023-08-12T09:15:27.729Z,29.61
2023-08-12T09:17:55.458Z,30.10
2023-08-12T09:20:23.534Z,30.26
2023-08-12T09:23:01.588Z,29.80
2023-08-12T09:25:31.209Z,29.97
2023-08-12T09:28:02.940Z,30.51
2023-08-12T09:30:32.478Z,31.50
2023-08-12T09:33:05.249Z,30.74
2023-08-12T09:35:36.088Z,31.72
2023-08-12T09:38:06.507Z,31.24
2023-08-12T09:40:37.625Z,31.91
2023-08-12T09:43:05.402Z,32.39
2023-08-12T09:45:35.033Z,32.00
2023-08-12T09:48:03.748Z,30.89
2023-08-12T09:50:31.860Z,30.77
2023-08-12T09:53:02.212Z,32.10
2023-08-12T09:55:32.884Z,31.65
2023-08-12T09:58:01.336Z,31.27
2023-08-12T10:00:29.113Z,31.39
2023-08-12T10:02:56.964Z,32.17
2023-08-12T10:05:28.370Z,32.22
2023-08-12T10:07:56.693Z,32.71
2023-08-12T10:10:24.318Z,32.81
2023-08-12T10:12:52.846Z,32.31
2023-08-12T10:15:21.064Z,34.23
2023-08-12T10:17:49.984Z,34.93
2023-08-12T10:20:24.029Z,35.41
2023-08-12T10:22:52.769Z,35.14
2023-08-12T10:25:23.772Z,35.95
2023-08-12T10:27:51.431Z,33.89
2023-08-12T10:30:21.447Z,35.30
2023-08-12T10:32:49.254Z,36.26
2023-08-12T10:35:17.084Z,37.57
2023-08-12T10:37:50.749Z,36.86
2023-08-12T10:40:23.481Z,36.39
2023-08-12T10:42:51.890Z,36.74
2023-08-12T10:45:20.061Z,37.87
2023-08-12T10:48:16.533Z,37.81
2023-08-12T10:50:50.531Z,37.39
2023-08-12T10:53:30.793Z,37.61
2023-08-12T10:56:01.459Z,37.32
2023-08-12T10:58:37.224Z,38.48
2023-08-12T11:01:15.415Z,38.96
2023-08-12T11:03:44.530Z,36.67
2023-08-12T11:06:12.833Z,37.25
2023-08-12T11:08:54.674Z,38.57
2023-08-12T11:11:24.985Z,39.72
2023-08-12T11:13:57.918Z,39.62
2023-08-12T11:16:39.186Z,39.13
2023-08-12T11:19:09.329Z,38.59
2023-08-12T11:21:37.823Z,37.88
2023-08-12T11:24:05.939Z,38.77
2023-08-12T11:26:33.701Z,37.51
2023-08-12T11:29:01.457Z,37.52
2023-08-12T11:31:29.558Z,37.15
2023-08-12T11:33:57.768Z,36.53
2023-08-12T11:36:25.474Z,35.89
2023-08-12T11:38:53.134Z,37.06
2023-08-12T11:41:24.020Z,37.80
2023-08-12T11:43:51.643Z,38.50
2023-08-12T11:46:19.490Z,39.47
2023-08-12T11:48:48.378Z,39.11
2023-08-12T11:51:17.235Z,38.75
2023-08-12T11:53:45.031Z,38.55
2023-08-12T11:56:12.702Z,36.71
2023-08-12T11:58:52.384Z,37.97
2023-08-12T12:01:25.926Z,38.05
2023-08-12T12:03:54.280Z,36.92
2023-08-12T12:06:38.580Z,37.94
2023-08-12T12:09:11.445Z,38.77
2023-08-12T12:11:40.099Z,39.27
2023-08-12T12:14:09.758Z,39.58
2023-08-12T12:16:45.447Z,39.83
2023-08-12T12:19:21.776Z,38.87
2023-08-12T12:21:54.395Z,40.57
2023-08-12T12:24:22.790Z,40.79
2023-08-12T12:26:50.600Z,40.66
2023-08-12T12:29:18.642Z,41.76
2023-08-12T12:31:46.660Z,41.74
2023-08-12T12:34:15.550Z,41.33
2023-08-12T12:36:43.316Z,40.41
2023-08-12T12:39:10.918Z,40.56
2023-08-12T12:41:38.561Z,40.87
2023-08-12T12:44:07.080Z,42.06
2023-08-12T12:46:34.950Z,41.90
2023-08-12T12:49:02.982Z,42.52
2023-08-12T12:51:31.245Z,41.32
2023-08-12T12:53:59.036Z,42.72
2023-08-12T12:56:26.690Z,41.83
2023-08-12T12:58:54.227Z,42.11
2023-08-12T13:01:22.491Z,43.01
2023-08-12T13:03:50.122Z,42.37
2023-08-12T13:06:17.834Z,42.97
2023-08-12T13:08:45.508Z,43.94
2023-08-12T13:11:13.036Z,44.76
2023-08-12T13:13:40.618Z,46.03
2023-08-12T13:16:09.549Z,45.65
2023-08-12T13:18:37.348Z,44.54
2023-08-12T13:21:04.904Z,43.41
2023-08-12T13:23:32.756Z,44.13
2023-08-12T13:26:00.896Z,44.77
2023-08-12T13:28:29.179Z,44.84
2023-08-12T13:30:57.259Z,45.86
2023-08-12T13:33:24.825Z,43.75
2023-08-12T13:35:52.485Z,44.12
2023-08-12T13:38:20.718Z,43.62
2023-08-12T13:40:49.866Z,44.49
2023-08-12T13:43:17.429Z,45.43
2023-08-12T13:45:45.511Z,46.56
2023-08-12T13:48:13.138Z,46.06
2023-08-12T13:50:41.090Z,44.62
2023-08-12T13:53:09.148Z,43.09
2023-08-12T13:55:36.811Z,44.94
2023-08-12T13:58:04.595Z,44.99
2023-08-12T14:00:32.342Z,43.97
2023-08-12T14:03:00.364Z,45.96
2023-08-12T14:05:28.496Z,46.55
2023-08-12T14:07:57.039Z,47.60
2023-08-12T14:10:25.189Z,47.50
2023-08-12T14:12:53.244Z,45.84
2023-08-12T14:15:21.063Z,45.22
2023-08-12T14:17:48.738Z,45.38
2023-08-12T14:20:16.629Z,46.56
2023-08-12T14:22:47.222Z,46.62
2023-08-12T14:25:14.808Z,43.95
2023-08-12T14:27:42.758Z,46.59
2023-08-12T14:30:11.103Z,46.94
2023-08-12T14:32:39.523Z,48.39
2023-08-12T14:35:07.719Z,45.40
2023-08-12T14:37:35.864Z,47.15
2023-08-12T14:40:04.166Z,47.07
2023-08-12T14:42:31.802Z,46.15
2023-08-12T14:44:59.609Z,48.00
2023-08-12T14:47:27.673Z,47.65
2023-08-12T14:49:56.120Z,44.00
2023-08-12T14:52:24.156Z,44.47
2023-08-12T14:54:52.185Z,42.88
2023-08-12T14:57:19.912Z,45.71
2023-08-12T14:59:51.671Z,46.55
2023-08-12T15:02:26.061Z,46.19
2023-08-12T15:04:54.616Z,46.34
2023-08-12T15:07:23.231Z,46.69
2023-08-12T15:09:52.426Z,46.53
2023-08-12T15:12:20.077Z,44.94
2023-08-12T15:14:48.226Z,45.40
2023-08-12T15:17:16.469Z,47.02
2023-08-12T15:19:44.926Z,47.17
2023-08-12T15:22:12.487Z,46.48
2023-08-12T15:24:40.184Z,45.35
2023-08-12T15:27:07.771Z,43.77
2023-08-12T15:29:35.427Z,43.41
2023-08-12T15:32:04.516Z,44.81
2023-08-12T15:34:32.954Z,44.10
2023-08-12T15:37:00.616Z,45.86
2023-08-12T15:39:28.778Z,44.95
2023-08-12T15:41:56.369Z,46.52
2023-08-12T15:44:24.420Z,44.88
2023-08-12T15:46:52.028Z,42.85
2023-08-12T15:49:20.140Z,44.95
2023-08-12T15:51:47.729Z,44.26
2023-08-12T15:54:15.273Z,44.32
2023-08-12T15:56:44.375Z,44.18
2023-08-12T15:59:11.987Z,43.83
2023-08-12T16:01:40.104Z,45.59
2023-08-12T16:04:08.154Z,43.05
2023-08-12T16:06:35.689Z,43.53
2023-08-12T16:09:16.872Z,42.53
2023-08-12T16:11:45.853Z,44.20
2023-08-12T16:14:13.833Z,45.08
2023-08-12T16:16:41.760Z,44.80
2023-08-12T16:19:09.398Z,44.01
2023-08-12T16:21:37.415Z,44.06
2023-08-12T16:24:05.219Z,41.05
2023-08-12T16:26:32.832Z,42.28
2023-08-12T16:29:01.293Z,41.86
2023-08-12T16:31:31.572Z,41.80
2023-08-12T16:33:59.272Z,41.69
2023-08-12T16:36:26.827Z,41.11
2023-08-12T16:38:54.468Z,40.23
2023-08-12T16:41:22.126Z,39.36
2023-08-12T16:43:49.790Z,39.73
2023-08-12T16:46:17.492Z,41.44
2023-08-12T16:48:45.521Z,40.83
2023-08-12T16:51:13.680Z,40.58
2023-08-12T16:53:41.467Z,41.60
2023-08-12T16:56:09.012Z,40.47
2023-08-12T16:58:36.733Z,39.66
2023-08-12T17:01:05.137Z,39.26
2023-08-12T17:03:32.804Z,38.66
2023-08-12T17:06:01.582Z,39.05
2023-08-12T17:08:30.522Z,39.56
2023-08-12T17:10:58.141Z,40.08
2023-08-12T17:13:25.698Z,38.73
2023-08-12T17:15:53.301Z,38.92
2023-08-12T17:18:21.329Z,38.87
2023-08-12T17:20:49.314Z,38.28
2023-08-12T17:23:16.939Z,37.91
2023-08-12T17:25:44.708Z,37.88
2023-08-12T17:28:12.549Z,36.57
2023-08-12T17:30:40.223Z,36.00
2023-08-12T17:33:07.846Z,35.79
2023-08-12T17:35:35.477Z,36.06
2023-08-12T17:38:03.183Z,35.37
2023-08-12T17:40:31.211Z,34.95
2023-08-12T17:42:58.817Z,34.62
2023-08-12T17:45:26.594Z,33.53
2023-08-12T17:47:59.979Z,33.11
2023-08-12T17:50:28.642Z,33.21
2023-08-12T17:52:57.183Z,32.90
2023-08-12T17:55:25.133Z,32.88
2023-08-12T17:57:53.484Z,32.60
2023-08-12T18:00:22.955Z,32.66
2023-08-12T18:02:50.563Z,32.50
2023-08-12T18:05:18.356Z,32.35
2023-08-12T18:07:47.439Z,32.18
2023-08-12T18:10:15.515Z,31.94
2023-08-12T18:12:43.136Z,31.80
2023-08-12T18:15:10.798Z,31.57
2023-08-12T18:17:38.963Z,31.57
2023-08-12T18:20:07.255Z,31.51
2023-08-12T18:22:34.754Z,31.64
2023-08-12T18:25:02.345Z,31.59
2023-08-12T18:27:30.620Z,31.31
2023-08-12T18:29:58.216Z,31.17
2023-08-12T18:32:28.418Z,31.34
2023-08-12T18:34:57.268Z,31.41
2023-08-12T18:37:24.838Z,31.56
2023-08-12T18:39:52.630Z,31.52
2023-08-12T18:42:20.363Z,31.39
2023-08-12T18:44:48.438Z,31.30
2023-08-12T18:47:17.792Z,30.84
2023-08-12T18:49:45.601Z,31.08
2023-08-12T18:52:14.871Z,30.94
2023-08-12T18:54:43.065Z,30.73
2023-08-12T18:57:10.701Z,30.70
2023-08-12T18:59:38.805Z,30.54
2023-08-12T19:02:07.128Z,30.47
2023-08-12T19:04:35.292Z,30.57
2023-08-12T19:07:03.041Z,30.49
2023-08-12T19:09:31.224Z,30.56
2023-08-12T19:11:58.796Z,30.50
2023-08-12T19:14:26.433Z,30.30
2023-08-12T19:16:55.129Z,29.99
2023-08-12T19:19:23.175Z,29.91
2023-08-12T19:21:50.746Z,29.92
2023-08-12T19:24:18.810Z,29.73
2023-08-12T19:26:46.380Z,29.43
2023-08-12T19:29:14.457Z,29.44
2023-08-12T19:31:42.143Z,29.20
2023-08-12T19:34:10.283Z,29.25
2023-08-12T19:36:37.905Z,29.44
2023-08-12T19:39:06.207Z,29.28
2023-08-12T19:41:33.854Z,28.99
2023-08-12T19:44:01.414Z,28.96
2023-08-12T19:46:29.901Z,28.81
2023-08-12T19:48:59.314Z,28.78
2023-08-12T19:51:26.934Z,28.63
2023-08-12T19:53:54.646Z,28.76
2023-08-12T19:56:22.555Z,28.71
2023-08-12T19:58:50.649Z,28.74
2023-08-12T20:01:18.272Z,28.78
2023-08-12T20:03:45.955Z,28.85
2023-08-12T20:06:13.583Z,28.52
2023-08-12T20:08:41.595Z,28.48
2023-08-12T20:11:09.262Z,28.36
2023-08-12T20:13:37.999Z,28.32
2023-08-12T20:16:05.617Z,28.25
2023-08-12T20:18:33.207Z,28.30
2023-08-12T20:21:01.033Z,28.31
2023-08-12T20:23:29.044Z,28.37
2023-08-12T20:25:57.037Z,28.23
2023-08-12T20:28:25.465Z,27.96
2023-08-12T20:30:53.499Z,27.98
2023-08-12T20:33:21.228Z,28.08
2023-08-12T20:35:49.009Z,28.02
2023-08-12T20:38:19.373Z,28.07
2023-08-12T20:40:47.076Z,28.16
2023-08-12T20:43:15.123Z,28.02
2023-08-12T20:45:43.138Z,28.07
2023-08-12T20:48:11.125Z,28.14
2023-08-12T20:50:38.684Z,28.27
2023-08-12T20:53:06.303Z,28.27
2023-08-12T20:55:33.949Z,28.24
2023-08-12T20:58:01.920Z,28.08
2023-08-12T21:00:30.243Z,28.07
2023-08-12T21:02:58.317Z,27.80
2023-08-12T21:05:26.386Z,27.94
2023-08-12T21:07:53.978Z,27.76
2023-08-12T21:10:21.823Z,27.92
2023-08-12T21:12:49.430Z,27.90
2023-08-12T21:15:16.978Z,28.01
2023-08-12T21:17:44.561Z,28.07
2023-08-12T21:20:12.535Z,28.07
2023-08-12T21:22:40.305Z,28.15
2023-08-12T21:25:08.220Z,28.02
2023-08-12T21:27:36.250Z,27.70
2023-08-12T21:30:04.528Z,27.52
2023-08-12T21:32:32.433Z,27.43
2023-08-12T21:35:00.599Z,27.59
2023-08-12T21:37:28.583Z,27.69
2023-08-12T21:39:56.525Z,27.75
2023-08-12T21:42:24.177Z,27.69
2023-08-12T21:44:52.215Z,27.77
2023-08-12T21:47:19.777Z,27.75
2023-08-12T21:49:47.828Z,27.62
2023-08-12T21:52:15.836Z,27.56
2023-08-12T21:54:44.476Z,27.64
2023-08-12T21:57:12.146Z,27.65
2023-08-12T21:59:40.249Z,27.52
2023-08-12T22:02:08.763Z,27.40
2023-08-12T22:04:36.277Z,27.41
2023-08-12T22:07:05.633Z,27.48
2023-08-12T22:09:35.414Z,27.40
2023-08-12T22:12:03.093Z,27.39
2023-08-12T22:14:31.281Z,27.27
2023-08-12T22:16:59.371Z,27.27
2023-08-12T22:19:29.725Z,27.18
2023-08-12T22:22:05.401Z,27.09
2023-08-12T22:24:41.149Z,27.01
2023-08-12T22:27:09.238Z,26.95
2023-08-12T22:29:37.279Z,27.15
2023-08-12T22:32:05.070Z,27.09
2023-08-12T22:34:32.665Z,27.16
2023-08-12T22:37:00.327Z,27.14
2023-08-12T22:39:27.941Z,26.97
2023-08-12T22:41:56.383Z,27.05
2023-08-12T22:44:23.942Z,27.15
2023-08-12T22:46:51.577Z,27.08
2023-08-12T22:49:20.089Z,27.30
2023-08-12T22:51:47.687Z,27.31
2023-08-12T22:54:16.286Z,27.14
2023-08-12T22:56:43.830Z,27.27
2023-08-12T22:59:11.593Z,27.25
2023-08-12T23:01:39.158Z,27.14
2023-08-12T23:04:07.677Z,27.12
2023-08-12T23:06:35.272Z,27.14
2023-08-12T23:09:02.984Z,27.13
2023-08-12T23:11:31.001Z,27.10
2023-08-12T23:13:58.555Z,27.03
2023-08-12T23:16:26.648Z,26.80
2023-08-12T23:18:54.275Z,26.95
2023-08-12T23:21:21.870Z,26.97
2023-08-12T23:23:49.598Z,26.92
2023-08-12T23:26:18.297Z,26.64
2023-08-12T23:28:45.937Z,26.57
2023-08-12T23:31:13.483Z,26.81
2023-08-12T23:33:41.153Z,26.78
2023-08-12T23:36:09.723Z,26.67
2023-08-12T23:38:38.282Z,26.53
2023-08-12T23:41:05.811Z,26.51
2023-08-12T23:43:33.656Z,26.46
2023-08-12T23:46:01.544Z,26.61
2023-08-12T23:48:29.190Z,26.67
2023-08-12T23:50:57.030Z,26.54
2023-08-12T23:53:25.411Z,26.57
2023-08-12T23:55:53.097Z,26.53
2023-08-12T23:58:20.775Z,26.55
